METAR Data
IDs: Format: Raw Decoded Include TAF

Data at: 2349 UTC 24 Apr 2019

METAR for:KPRO (Perry Muni, IA, US)
Text:KPRO 242335Z AUTO 24007KT 10SM CLR 22/03 A2977 RMK AO2 T02220033
Temperature: 22.2°C ( 72°F)
Dewpoint: 3.3°C ( 38°F) [RH = 29%]
Pressure (altimeter):29.77 inches Hg (1008.2 mb)
Winds:from the WSW (240 degrees) at 8 MPH (7 knots; 3.6 m/s)
Visibility:10 or more sm (16+ km)
Ceiling:at least 12,000 feet AGL
Clouds:sky clear below 12,000 feet AGL
QC Flag:automated observation with no human augmentation